sensor_id;sensor_type;location;lat;lon;timestamp;P1;durP1;ratioP1;P2;durP2;ratioP2
57832;SDS011;43667;53.036;6.740;2023-07-29T00:02:08;8.52;;;5.35;;
57832;SDS011;43667;53.036;6.740;2023-07-29T00:04:34;9.00;;;6.43;;
57832;SDS011;43667;53.036;6.740;2023-07-29T00:07:00;6.60;;;5.78;;
57832;SDS011;43667;53.036;6.740;2023-07-29T00:09:25;8.65;;;5.43;;
57832;SDS011;43667;53.036;6.740;2023-07-29T00:11:51;7.93;;;5.90;;
57832;SDS011;43667;53.036;6.740;2023-07-29T00:14:16;9.70;;;6.88;;
57832;SDS011;43667;53.036;6.740;2023-07-29T00:16:42;6.30;;;4.88;;
57832;SDS011;43667;53.036;6.740;2023-07-29T00:19:08;8.48;;;5.82;;
57832;SDS011;43667;53.036;6.740;2023-07-29T00:21:33;13.85;;;5.55;;
57832;SDS011;43667;53.036;6.740;2023-07-29T00:23:59;9.38;;;6.07;;
57832;SDS011;43667;53.036;6.740;2023-07-29T00:26:26;9.50;;;6.72;;
57832;SDS011;43667;53.036;6.740;2023-07-29T00:28:54;11.32;;;7.05;;
57832;SDS011;43667;53.036;6.740;2023-07-29T00:31:20;12.15;;;5.78;;
57832;SDS011;43667;53.036;6.740;2023-07-29T00:33:45;8.77;;;7.82;;
57832;SDS011;43667;53.036;6.740;2023-07-29T00:36:11;10.88;;;8.23;;
57832;SDS011;43667;53.036;6.740;2023-07-29T00:38:37;11.35;;;8.88;;
57832;SDS011;43667;53.036;6.740;2023-07-29T00:41:02;7.30;;;6.53;;
57832;SDS011;43667;53.036;6.740;2023-07-29T00:43:28;9.93;;;8.95;;
57832;SDS011;43667;53.036;6.740;2023-07-29T00:45:54;10.05;;;6.90;;
57832;SDS011;43667;53.036;6.740;2023-07-29T00:48:22;9.80;;;6.88;;
57832;SDS011;43667;53.036;6.740;2023-07-29T00:50:48;7.82;;;6.20;;
57832;SDS011;43667;53.036;6.740;2023-07-29T00:53:14;10.45;;;6.82;;
57832;SDS011;43667;53.036;6.740;2023-07-29T00:55:40;10.18;;;7.00;;
57832;SDS011;43667;53.036;6.740;2023-07-29T00:58:07;11.20;;;8.13;;
57832;SDS011;43667;53.036;6.740;2023-07-29T01:00:32;11.35;;;8.55;;
57832;SDS011;43667;53.036;6.740;2023-07-29T01:02:58;9.98;;;8.85;;
57832;SDS011;43667;53.036;6.740;2023-07-29T01:05:23;10.18;;;8.00;;
57832;SDS011;43667;53.036;6.740;2023-07-29T01:07:59;11.73;;;8.55;;
57832;SDS011;43667;53.036;6.740;2023-07-29T01:13:04;14.27;;;8.57;;
57832;SDS011;43667;53.036;6.740;2023-07-29T01:15:43;12.02;;;9.38;;
57832;SDS011;43667;53.036;6.740;2023-07-29T01:18:30;11.57;;;8.88;;
57832;SDS011;43667;53.036;6.740;2023-07-29T01:21:04;10.10;;;8.48;;
57832;SDS011;43667;53.036;6.740;2023-07-29T01:23:33;15.27;;;9.02;;
57832;SDS011;43667;53.036;6.740;2023-07-29T01:26:01;9.63;;;7.97;;
57832;SDS011;43667;53.036;6.740;2023-07-29T01:28:27;9.75;;;8.40;;
57832;SDS011;43667;53.036;6.740;2023-07-29T01:34:05;12.35;;;9.90;;
57832;SDS011;43667;53.036;6.740;2023-07-29T01:36:36;14.15;;;10.55;;
57832;SDS011;43667;53.036;6.740;2023-07-29T01:39:05;11.95;;;10.23;;
57832;SDS011;43667;53.036;6.740;2023-07-29T01:41:32;14.93;;;9.98;;
57832;SDS011;43667;53.036;6.740;2023-07-29T01:43:58;11.75;;;9.68;;
57832;SDS011;43667;53.036;6.740;2023-07-29T01:46:25;13.98;;;10.93;;
57832;SDS011;43667;53.036;6.740;2023-07-29T01:48:50;13.05;;;11.65;;
57832;SDS011;43667;53.036;6.740;2023-07-29T01:51:16;13.10;;;10.82;;
57832;SDS011;43667;53.036;6.740;2023-07-29T01:53:42;10.55;;;9.45;;
57832;SDS011;43667;53.036;6.740;2023-07-29T01:56:07;13.80;;;10.15;;
57832;SDS011;43667;53.036;6.740;2023-07-29T01:58:33;11.60;;;10.15;;
57832;SDS011;43667;53.036;6.740;2023-07-29T02:00:58;18.92;;;11.98;;
57832;SDS011;43667;53.036;6.740;2023-07-29T02:03:24;12.23;;;10.95;;
57832;SDS011;43667;53.036;6.740;2023-07-29T02:05:50;17.23;;;9.82;;
57832;SDS011;43667;53.036;6.740;2023-07-29T02:08:15;12.20;;;10.50;;
57832;SDS011;43667;53.036;6.740;2023-07-29T02:10:41;14.40;;;10.88;;
57832;SDS011;43667;53.036;6.740;2023-07-29T02:13:10;12.38;;;10.18;;
57832;SDS011;43667;53.036;6.740;2023-07-29T02:15:35;14.13;;;11.38;;
57832;SDS011;43667;53.036;6.740;2023-07-29T02:18:01;10.80;;;9.25;;
57832;SDS011;43667;53.036;6.740;2023-07-29T02:20:28;12.55;;;9.85;;
57832;SDS011;43667;53.036;6.740;2023-07-29T02:22:54;11.73;;;10.52;;
57832;SDS011;43667;53.036;6.740;2023-07-29T02:25:19;12.98;;;10.60;;
57832;SDS011;43667;53.036;6.740;2023-07-29T02:27:45;14.00;;;10.88;;
57832;SDS011;43667;53.036;6.740;2023-07-29T02:30:11;13.02;;;10.05;;
57832;SDS011;43667;53.036;6.740;2023-07-29T02:32:37;11.95;;;9.50;;
57832;SDS011;43667;53.036;6.740;2023-07-29T02:35:03;11.90;;;9.40;;
57832;SDS011;43667;53.036;6.740;2023-07-29T02:37:29;12.80;;;10.15;;
57832;SDS011;43667;53.036;6.740;2023-07-29T02:39:55;11.05;;;9.43;;
57832;SDS011;43667;53.036;6.740;2023-07-29T02:42:21;11.52;;;8.82;;
57832;SDS011;43667;53.036;6.740;2023-07-29T02:44:46;16.75;;;11.10;;
57832;SDS011;43667;53.036;6.740;2023-07-29T02:47:12;10.85;;;9.20;;
57832;SDS011;43667;53.036;6.740;2023-07-29T02:49:38;12.63;;;9.52;;
57832;SDS011;43667;53.036;6.740;2023-07-29T02:52:03;10.95;;;8.85;;
57832;SDS011;43667;53.036;6.740;2023-07-29T02:54:30;14.30;;;8.93;;
57832;SDS011;43667;53.036;6.740;2023-07-29T02:56:55;12.32;;;9.52;;
57832;SDS011;43667;53.036;6.740;2023-07-29T02:59:21;9.13;;;8.13;;
57832;SDS011;43667;53.036;6.740;2023-07-29T03:01:46;11.70;;;8.95;;
57832;SDS011;43667;53.036;6.740;2023-07-29T03:04:12;10.77;;;8.40;;
57832;SDS011;43667;53.036;6.740;2023-07-29T03:06:38;11.00;;;8.00;;
57832;SDS011;43667;53.036;6.740;2023-07-29T03:09:03;10.20;;;8.10;;
57832;SDS011;43667;53.036;6.740;2023-07-29T03:11:29;13.88;;;8.77;;
57832;SDS011;43667;53.036;6.740;2023-07-29T03:13:56;9.48;;;7.78;;
57832;SDS011;43667;53.036;6.740;2023-07-29T03:16:22;11.00;;;8.38;;
57832;SDS011;43667;53.036;6.740;2023-07-29T03:18:48;11.18;;;7.88;;
57832;SDS011;43667;53.036;6.740;2023-07-29T03:21:13;8.70;;;7.55;;
57832;SDS011;43667;53.036;6.740;2023-07-29T03:23:39;11.90;;;7.80;;
57832;SDS011;43667;53.036;6.740;2023-07-29T03:26:05;13.57;;;7.55;;
57832;SDS011;43667;53.036;6.740;2023-07-29T03:28:37;11.65;;;8.15;;
57832;SDS011;43667;53.036;6.740;2023-07-29T03:31:04;9.90;;;7.60;;
57832;SDS011;43667;53.036;6.740;2023-07-29T03:33:30;14.27;;;7.70;;
57832;SDS011;43667;53.036;6.740;2023-07-29T03:35:55;13.73;;;8.70;;
57832;SDS011;43667;53.036;6.740;2023-07-29T03:38:21;8.27;;;7.22;;
57832;SDS011;43667;53.036;6.740;2023-07-29T03:40:47;10.63;;;8.40;;
57832;SDS011;43667;53.036;6.740;2023-07-29T03:43:12;9.95;;;7.72;;
57832;SDS011;43667;53.036;6.740;2023-07-29T03:45:38;12.30;;;9.27;;
57832;SDS011;43667;53.036;6.740;2023-07-29T03:48:04;17.35;;;9.77;;
57832;SDS011;43667;53.036;6.740;2023-07-29T03:50:30;10.75;;;7.53;;
57832;SDS011;43667;53.036;6.740;2023-07-29T03:52:58;14.93;;;7.95;;
57832;SDS011;43667;53.036;6.740;2023-07-29T03:55:24;10.20;;;7.10;;
57832;SDS011;43667;53.036;6.740;2023-07-29T03:57:49;12.13;;;7.28;;
57832;SDS011;43667;53.036;6.740;2023-07-29T04:00:15;10.00;;;7.38;;
57832;SDS011;43667;53.036;6.740;2023-07-29T04:02:41;12.48;;;7.93;;
57832;SDS011;43667;53.036;6.740;2023-07-29T04:05:07;10.88;;;6.90;;
57832;SDS011;43667;53.036;6.740;2023-07-29T04:07:33;10.13;;;8.65;;
57832;SDS011;43667;53.036;6.740;2023-07-29T04:09:59;9.25;;;6.78;;
57832;SDS011;43667;53.036;6.740;2023-07-29T04:12:26;7.72;;;6.75;;
57832;SDS011;43667;53.036;6.740;2023-07-29T04:14:51;7.47;;;6.57;;
57832;SDS011;43667;53.036;6.740;2023-07-29T04:17:17;11.93;;;6.82;;
57832;SDS011;43667;53.036;6.740;2023-07-29T04:19:42;8.65;;;6.75;;
57832;SDS011;43667;53.036;6.740;2023-07-29T04:22:08;9.40;;;7.05;;
57832;SDS011;43667;53.036;6.740;2023-07-29T04:24:34;10.15;;;6.65;;
57832;SDS011;43667;53.036;6.740;2023-07-29T04:26:59;9.05;;;5.93;;
57832;SDS011;43667;53.036;6.740;2023-07-29T04:29:25;9.82;;;6.20;;
57832;SDS011;43667;53.036;6.740;2023-07-29T04:31:50;10.40;;;6.63;;
57832;SDS011;43667;53.036;6.740;2023-07-29T04:34:19;9.35;;;6.63;;
57832;SDS011;43667;53.036;6.740;2023-07-29T04:36:45;10.88;;;5.78;;
57832;SDS011;43667;53.036;6.740;2023-07-29T04:39:11;9.48;;;6.30;;
57832;SDS011;43667;53.036;6.740;2023-07-29T04:41:37;9.02;;;6.40;;
57832;SDS011;43667;53.036;6.740;2023-07-29T04:44:03;8.30;;;5.72;;
57832;SDS011;43667;53.036;6.740;2023-07-29T04:46:28;11.57;;;6.10;;
57832;SDS011;43667;53.036;6.740;2023-07-29T04:48:54;9.30;;;5.80;;
57832;SDS011;43667;53.036;6.740;2023-07-29T04:51:21;12.32;;;6.03;;
57832;SDS011;43667;53.036;6.740;2023-07-29T04:53:46;7.88;;;5.28;;
57832;SDS011;43667;53.036;6.740;2023-07-29T04:56:12;10.15;;;6.13;;
57832;SDS011;43667;53.036;6.740;2023-07-29T04:58:38;10.27;;;5.50;;
57832;SDS011;43667;53.036;6.740;2023-07-29T05:01:04;9.45;;;5.18;;
57832;SDS011;43667;53.036;6.740;2023-07-29T05:03:30;7.80;;;4.90;;
57832;SDS011;43667;53.036;6.740;2023-07-29T05:05:55;7.35;;;5.70;;
57832;SDS011;43667;53.036;6.740;2023-07-29T05:08:22;9.35;;;5.25;;
57832;SDS011;43667;53.036;6.740;2023-07-29T05:10:51;7.63;;;5.00;;
57832;SDS011;43667;53.036;6.740;2023-07-29T05:13:17;8.38;;;4.57;;
57832;SDS011;43667;53.036;6.740;2023-07-29T05:15:43;6.90;;;5.20;;
57832;SDS011;43667;53.036;6.740;2023-07-29T05:18:09;9.18;;;4.88;;
57832;SDS011;43667;53.036;6.740;2023-07-29T05:20:35;7.28;;;4.45;;
57832;SDS011;43667;53.036;6.740;2023-07-29T05:23:00;9.30;;;4.70;;
57832;SDS011;43667;53.036;6.740;2023-07-29T05:25:26;7.00;;;4.60;;
57832;SDS011;43667;53.036;6.740;2023-07-29T05:27:52;4.45;;;3.67;;
57832;SDS011;43667;53.036;6.740;2023-07-29T05:30:18;8.70;;;3.95;;
57832;SDS011;43667;53.036;6.740;2023-07-29T05:32:43;6.50;;;3.58;;
57832;SDS011;43667;53.036;6.740;2023-07-29T05:35:10;4.68;;;3.30;;
57832;SDS011;43667;53.036;6.740;2023-07-29T05:37:38;7.50;;;3.33;;
57832;SDS011;43667;53.036;6.740;2023-07-29T05:40:07;8.13;;;3.42;;
57832;SDS011;43667;53.036;6.740;2023-07-29T05:42:36;4.53;;;3.08;;
57832;SDS011;43667;53.036;6.740;2023-07-29T05:45:01;6.60;;;3.13;;
57832;SDS011;43667;53.036;6.740;2023-07-29T05:47:28;4.93;;;2.90;;
57832;SDS011;43667;53.036;6.740;2023-07-29T05:49:54;7.50;;;2.80;;
57832;SDS011;43667;53.036;6.740;2023-07-29T05:52:19;6.95;;;2.97;;
57832;SDS011;43667;53.036;6.740;2023-07-29T05:54:45;5.18;;;2.78;;
57832;SDS011;43667;53.036;6.740;2023-07-29T05:57:11;5.30;;;2.88;;
57832;SDS011;43667;53.036;6.740;2023-07-29T05:59:37;6.50;;;2.70;;
57832;SDS011;43667;53.036;6.740;2023-07-29T06:02:03;4.63;;;2.55;;
57832;SDS011;43667;53.036;6.740;2023-07-29T06:04:28;6.05;;;2.50;;
57832;SDS011;43667;53.036;6.740;2023-07-29T06:06:54;8.35;;;3.20;;
57832;SDS011;43667;53.036;6.740;2023-07-29T06:09:21;5.70;;;2.60;;
57832;SDS011;43667;53.036;6.740;2023-07-29T06:11:47;7.03;;;2.80;;
57832;SDS011;43667;53.036;6.740;2023-07-29T06:14:12;3.53;;;2.50;;
57832;SDS011;43667;53.036;6.740;2023-07-29T06:16:38;5.57;;;2.42;;
57832;SDS011;43667;53.036;6.740;2023-07-29T06:19:04;5.78;;;2.45;;
57832;SDS011;43667;53.036;6.740;2023-07-29T06:21:29;3.55;;;2.70;;
57832;SDS011;43667;53.036;6.740;2023-07-29T06:23:55;5.95;;;2.95;;
57832;SDS011;43667;53.036;6.740;2023-07-29T06:26:21;5.20;;;2.90;;
57832;SDS011;43667;53.036;6.740;2023-07-29T06:28:47;4.80;;;2.42;;
57832;SDS011;43667;53.036;6.740;2023-07-29T06:31:12;4.82;;;3.08;;
57832;SDS011;43667;53.036;6.740;2023-07-29T06:33:38;5.55;;;2.78;;
57832;SDS011;43667;53.036;6.740;2023-07-29T06:36:04;6.25;;;3.03;;
57832;SDS011;43667;53.036;6.740;2023-07-29T06:38:29;7.50;;;2.75;;
57832;SDS011;43667;53.036;6.740;2023-07-29T06:40:55;4.68;;;3.13;;
57832;SDS011;43667;53.036;6.740;2023-07-29T06:43:21;6.40;;;2.70;;
57832;SDS011;43667;53.036;6.740;2023-07-29T06:45:46;4.32;;;2.25;;
57832;SDS011;43667;53.036;6.740;2023-07-29T06:48:12;7.20;;;3.05;;
57832;SDS011;43667;53.036;6.740;2023-07-29T06:50:37;8.35;;;2.95;;
57832;SDS011;43667;53.036;6.740;2023-07-29T06:53:03;5.38;;;2.75;;
57832;SDS011;43667;53.036;6.740;2023-07-29T06:55:28;6.95;;;3.25;;
57832;SDS011;43667;53.036;6.740;2023-07-29T06:57:54;6.30;;;3.40;;
57832;SDS011;43667;53.036;6.740;2023-07-29T07:00:20;7.05;;;3.45;;
57832;SDS011;43667;53.036;6.740;2023-07-29T07:02:45;8.57;;;2.80;;
57832;SDS011;43667;53.036;6.740;2023-07-29T07:05:11;5.55;;;2.92;;
57832;SDS011;43667;53.036;6.740;2023-07-29T07:07:37;9.23;;;3.30;;
57832;SDS011;43667;53.036;6.740;2023-07-29T07:10:03;5.72;;;3.30;;
57832;SDS011;43667;53.036;6.740;2023-07-29T07:12:28;7.57;;;3.05;;
57832;SDS011;43667;53.036;6.740;2023-07-29T07:14:54;5.25;;;2.85;;
57832;SDS011;43667;53.036;6.740;2023-07-29T07:17:20;7.93;;;3.20;;
57832;SDS011;43667;53.036;6.740;2023-07-29T07:19:45;7.85;;;3.30;;
57832;SDS011;43667;53.036;6.740;2023-07-29T07:22:11;5.03;;;2.80;;
57832;SDS011;43667;53.036;6.740;2023-07-29T07:24:37;16.23;;;3.70;;
57832;SDS011;43667;53.036;6.740;2023-07-29T07:27:02;7.70;;;3.75;;
57832;SDS011;43667;53.036;6.740;2023-07-29T07:29:28;8.20;;;3.53;;
57832;SDS011;43667;53.036;6.740;2023-07-29T07:31:55;9.40;;;3.67;;
57832;SDS011;43667;53.036;6.740;2023-07-29T07:34:21;8.40;;;4.28;;
57832;SDS011;43667;53.036;6.740;2023-07-29T07:36:47;12.40;;;4.82;;
57832;SDS011;43667;53.036;6.740;2023-07-29T07:39:13;5.53;;;3.45;;
57832;SDS011;43667;53.036;6.740;2023-07-29T07:41:40;6.10;;;3.60;;
57832;SDS011;43667;53.036;6.740;2023-07-29T07:44:06;11.10;;;4.10;;
57832;SDS011;43667;53.036;6.740;2023-07-29T07:46:32;7.45;;;4.25;;
57832;SDS011;43667;53.036;6.740;2023-07-29T07:48:58;7.55;;;4.50;;
57832;SDS011;43667;53.036;6.740;2023-07-29T07:51:23;7.53;;;3.97;;
57832;SDS011;43667;53.036;6.740;2023-07-29T07:53:49;7.18;;;4.20;;
57832;SDS011;43667;53.036;6.740;2023-07-29T07:56:14;10.02;;;5.00;;
57832;SDS011;43667;53.036;6.740;2023-07-29T07:58:40;7.35;;;4.03;;
57832;SDS011;43667;53.036;6.740;2023-07-29T08:01:06;6.88;;;4.40;;
57832;SDS011;43667;53.036;6.740;2023-07-29T08:03:34;6.15;;;3.92;;
57832;SDS011;43667;53.036;6.740;2023-07-29T08:06:00;9.35;;;4.38;;
57832;SDS011;43667;53.036;6.740;2023-07-29T08:08:26;8.48;;;4.43;;
57832;SDS011;43667;53.036;6.740;2023-07-29T08:10:53;5.75;;;3.63;;
57832;SDS011;43667;53.036;6.740;2023-07-29T08:13:20;7.68;;;3.95;;
57832;SDS011;43667;53.036;6.740;2023-07-29T08:15:49;6.03;;;3.42;;
57832;SDS011;43667;53.036;6.740;2023-07-29T08:18:16;6.55;;;3.38;;
57832;SDS011;43667;53.036;6.740;2023-07-29T08:20:52;6.53;;;3.28;;
57832;SDS011;43667;53.036;6.740;2023-07-29T08:23:20;8.55;;;3.45;;
57832;SDS011;43667;53.036;6.740;2023-07-29T08:25:50;9.95;;;3.55;;
57832;SDS011;43667;53.036;6.740;2023-07-29T08:28:21;6.90;;;2.92;;
57832;SDS011;43667;53.036;6.740;2023-07-29T08:30:47;5.63;;;2.63;;
57832;SDS011;43667;53.036;6.740;2023-07-29T08:33:12;4.20;;;2.45;;
57832;SDS011;43667;53.036;6.740;2023-07-29T08:35:38;6.15;;;2.83;;
57832;SDS011;43667;53.036;6.740;2023-07-29T08:38:04;6.20;;;2.50;;
57832;SDS011;43667;53.036;6.740;2023-07-29T08:40:29;7.45;;;2.65;;
57832;SDS011;43667;53.036;6.740;2023-07-29T08:42:56;7.13;;;2.42;;
57832;SDS011;43667;53.036;6.740;2023-07-29T08:45:25;4.55;;;2.67;;
57832;SDS011;43667;53.036;6.740;2023-07-29T08:47:52;5.13;;;2.80;;
57832;SDS011;43667;53.036;6.740;2023-07-29T08:50:23;6.13;;;2.75;;
57832;SDS011;43667;53.036;6.740;2023-07-29T08:52:49;6.60;;;3.05;;
57832;SDS011;43667;53.036;6.740;2023-07-29T08:55:17;5.22;;;2.55;;
57832;SDS011;43667;53.036;6.740;2023-07-29T08:57:44;4.60;;;2.40;;
57832;SDS011;43667;53.036;6.740;2023-07-29T09:00:10;4.13;;;2.20;;
57832;SDS011;43667;53.036;6.740;2023-07-29T09:02:37;4.57;;;1.98;;
57832;SDS011;43667;53.036;6.740;2023-07-29T09:05:02;8.18;;;1.90;;
57832;SDS011;43667;53.036;6.740;2023-07-29T09:07:28;5.32;;;1.80;;
57832;SDS011;43667;53.036;6.740;2023-07-29T09:09:54;5.53;;;2.10;;
57832;SDS011;43667;53.036;6.740;2023-07-29T09:12:20;5.35;;;2.10;;
57832;SDS011;43667;53.036;6.740;2023-07-29T09:14:46;4.75;;;1.73;;
57832;SDS011;43667;53.036;6.740;2023-07-29T09:17:11;6.35;;;2.00;;
57832;SDS011;43667;53.036;6.740;2023-07-29T09:19:37;5.22;;;1.80;;
57832;SDS011;43667;53.036;6.740;2023-07-29T09:22:03;5.82;;;1.85;;
57832;SDS011;43667;53.036;6.740;2023-07-29T09:24:29;3.00;;;1.65;;
57832;SDS011;43667;53.036;6.740;2023-07-29T09:26:57;3.38;;;1.80;;
57832;SDS011;43667;53.036;6.740;2023-07-29T09:29:23;3.03;;;1.30;;
57832;SDS011;43667;53.036;6.740;2023-07-29T09:31:48;3.83;;;1.55;;
57832;SDS011;43667;53.036;6.740;2023-07-29T09:34:15;4.43;;;1.40;;
57832;SDS011;43667;53.036;6.740;2023-07-29T09:36:42;3.45;;;1.75;;
57832;SDS011;43667;53.036;6.740;2023-07-29T09:39:10;4.40;;;1.38;;
57832;SDS011;43667;53.036;6.740;2023-07-29T09:41:37;3.17;;;1.20;;
57832;SDS011;43667;53.036;6.740;2023-07-29T09:44:03;4.53;;;1.60;;
57832;SDS011;43667;53.036;6.740;2023-07-29T09:46:33;5.65;;;1.30;;
57832;SDS011;43667;53.036;6.740;2023-07-29T09:49:01;4.50;;;1.70;;
57832;SDS011;43667;53.036;6.740;2023-07-29T09:51:30;4.60;;;1.40;;
57832;SDS011;43667;53.036;6.740;2023-07-29T09:53:56;3.28;;;1.27;;
57832;SDS011;43667;53.036;6.740;2023-07-29T09:56:24;3.70;;;1.45;;
57832;SDS011;43667;53.036;6.740;2023-07-29T09:58:51;4.22;;;1.15;;
57832;SDS011;43667;53.036;6.740;2023-07-29T10:01:17;3.22;;;1.10;;
57832;SDS011;43667;53.036;6.740;2023-07-29T10:03:44;4.80;;;1.27;;
57832;SDS011;43667;53.036;6.740;2023-07-29T10:06:10;4.53;;;1.30;;
57832;SDS011;43667;53.036;6.740;2023-07-29T10:08:37;2.63;;;1.20;;
57832;SDS011;43667;53.036;6.740;2023-07-29T10:11:05;4.57;;;1.48;;
57832;SDS011;43667;53.036;6.740;2023-07-29T10:13:31;4.28;;;1.35;;
57832;SDS011;43667;53.036;6.740;2023-07-29T10:15:58;3.33;;;1.30;;
57832;SDS011;43667;53.036;6.740;2023-07-29T10:18:27;3.50;;;1.55;;
57832;SDS011;43667;53.036;6.740;2023-07-29T10:20:53;4.30;;;1.77;;
57832;SDS011;43667;53.036;6.740;2023-07-29T10:23:21;3.28;;;1.50;;
57832;SDS011;43667;53.036;6.740;2023-07-29T10:25:49;4.72;;;1.60;;
57832;SDS011;43667;53.036;6.740;2023-07-29T10:28:20;4.40;;;1.52;;
57832;SDS011;43667;53.036;6.740;2023-07-29T10:30:50;3.15;;;1.35;;
57832;SDS011;43667;53.036;6.740;2023-07-29T10:33:16;4.63;;;1.33;;
57832;SDS011;43667;53.036;6.740;2023-07-29T10:35:42;6.05;;;1.73;;
57832;SDS011;43667;53.036;6.740;2023-07-29T10:38:08;4.50;;;1.50;;
57832;SDS011;43667;53.036;6.740;2023-07-29T10:40:44;4.88;;;1.20;;
57832;SDS011;43667;53.036;6.740;2023-07-29T10:43:10;5.47;;;0.95;;
57832;SDS011;43667;53.036;6.740;2023-07-29T10:45:37;4.88;;;1.40;;
57832;SDS011;43667;53.036;6.740;2023-07-29T10:48:40;4.43;;;0.93;;
57832;SDS011;43667;53.036;6.740;2023-07-29T10:54:03;3.63;;;1.15;;
57832;SDS011;43667;53.036;6.740;2023-07-29T10:56:37;4.03;;;1.02;;
57832;SDS011;43667;53.036;6.740;2023-07-29T11:01:41;3.83;;;1.00;;
57832;SDS011;43667;53.036;6.740;2023-07-29T11:15:18;3.72;;;1.00;;
57832;SDS011;43667;53.036;6.740;2023-07-29T11:17:55;6.43;;;1.30;;
57832;SDS011;43667;53.036;6.740;2023-07-29T11:20:23;2.55;;;0.60;;
57832;SDS011;43667;53.036;6.740;2023-07-29T11:22:57;5.68;;;1.02;;
57832;SDS011;43667;53.036;6.740;2023-07-29T11:25:25;6.13;;;1.10;;
57832;SDS011;43667;53.036;6.740;2023-07-29T11:27:52;2.83;;;0.50;;
57832;SDS011;43667;53.036;6.740;2023-07-29T11:30:19;2.70;;;0.75;;
57832;SDS011;43667;53.036;6.740;2023-07-29T11:32:46;1.80;;;0.70;;
57832;SDS011;43667;53.036;6.740;2023-07-29T11:35:13;2.38;;;0.52;;
57832;SDS011;43667;53.036;6.740;2023-07-29T11:37:40;4.50;;;1.00;;
57832;SDS011;43667;53.036;6.740;2023-07-29T11:40:07;1.52;;;0.80;;
57832;SDS011;43667;53.036;6.740;2023-07-29T11:42:35;5.68;;;0.90;;
57832;SDS011;43667;53.036;6.740;2023-07-29T11:45:04;14.68;;;1.38;;
57832;SDS011;43667;53.036;6.740;2023-07-29T11:50:02;3.20;;;0.80;;
57832;SDS011;43667;53.036;6.740;2023-07-29T11:52:29;3.15;;;0.85;;
57832;SDS011;43667;53.036;6.740;2023-07-29T11:54:57;4.20;;;0.90;;
57832;SDS011;43667;53.036;6.740;2023-07-29T11:57:23;2.20;;;0.93;;
57832;SDS011;43667;53.036;6.740;2023-07-29T11:59:49;2.22;;;1.08;;
57832;SDS011;43667;53.036;6.740;2023-07-29T12:02:15;4.90;;;1.40;;
57832;SDS011;43667;53.036;6.740;2023-07-29T12:04:46;3.65;;;0.98;;
57832;SDS011;43667;53.036;6.740;2023-07-29T12:07:13;2.20;;;1.10;;
57832;SDS011;43667;53.036;6.740;2023-07-29T12:09:40;4.53;;;1.10;;
57832;SDS011;43667;53.036;6.740;2023-07-29T12:12:07;5.78;;;1.70;;
57832;SDS011;43667;53.036;6.740;2023-07-29T12:14:33;7.60;;;2.03;;
57832;SDS011;43667;53.036;6.740;2023-07-29T12:16:59;8.30;;;1.70;;
57832;SDS011;43667;53.036;6.740;2023-07-29T12:19:31;6.38;;;2.00;;
57832;SDS011;43667;53.036;6.740;2023-07-29T12:22:01;5.63;;;1.90;;
57832;SDS011;43667;53.036;6.740;2023-07-29T12:24:29;6.97;;;1.88;;
57832;SDS011;43667;53.036;6.740;2023-07-29T12:26:55;6.43;;;1.67;;
57832;SDS011;43667;53.036;6.740;2023-07-29T12:29:20;4.90;;;1.73;;
57832;SDS011;43667;53.036;6.740;2023-07-29T12:31:46;3.92;;;1.42;;
57832;SDS011;43667;53.036;6.740;2023-07-29T12:34:18;5.25;;;2.00;;
57832;SDS011;43667;53.036;6.740;2023-07-29T12:36:49;5.90;;;1.77;;
57832;SDS011;43667;53.036;6.740;2023-07-29T12:39:22;5.97;;;1.95;;
57832;SDS011;43667;53.036;6.740;2023-07-29T12:41:49;6.18;;;1.73;;
57832;SDS011;43667;53.036;6.740;2023-07-29T12:44:16;3.17;;;1.80;;
57832;SDS011;43667;53.036;6.740;2023-07-29T12:46:42;3.63;;;1.55;;
57832;SDS011;43667;53.036;6.740;2023-07-29T12:49:08;3.35;;;1.42;;
57832;SDS011;43667;53.036;6.740;2023-07-29T12:51:34;6.97;;;1.65;;
57832;SDS011;43667;53.036;6.740;2023-07-29T12:54:00;2.45;;;1.30;;
57832;SDS011;43667;53.036;6.740;2023-07-29T12:56:27;4.50;;;1.40;;
57832;SDS011;43667;53.036;6.740;2023-07-29T12:58:53;4.45;;;1.45;;
57832;SDS011;43667;53.036;6.740;2023-07-29T13:01:19;2.25;;;1.13;;
57832;SDS011;43667;53.036;6.740;2023-07-29T13:03:45;3.78;;;1.30;;
57832;SDS011;43667;53.036;6.740;2023-07-29T13:06:11;3.53;;;1.40;;
57832;SDS011;43667;53.036;6.740;2023-07-29T13:08:36;4.50;;;1.58;;
57832;SDS011;43667;53.036;6.740;2023-07-29T13:11:02;5.03;;;1.85;;
57832;SDS011;43667;53.036;6.740;2023-07-29T13:13:29;4.82;;;1.40;;
57832;SDS011;43667;53.036;6.740;2023-07-29T13:15:57;4.07;;;1.05;;
57832;SDS011;43667;53.036;6.740;2023-07-29T13:18:23;4.07;;;1.30;;
57832;SDS011;43667;53.036;6.740;2023-07-29T13:20:48;3.78;;;1.20;;
57832;SDS011;43667;53.036;6.740;2023-07-29T13:23:15;3.55;;;1.38;;
57832;SDS011;43667;53.036;6.740;2023-07-29T13:25:41;2.55;;;1.00;;
57832;SDS011;43667;53.036;6.740;2023-07-29T13:28:06;2.42;;;0.75;;
57832;SDS011;43667;53.036;6.740;2023-07-29T13:30:33;4.47;;;1.35;;
57832;SDS011;43667;53.036;6.740;2023-07-29T13:32:59;2.08;;;0.70;;
57832;SDS011;43667;53.036;6.740;2023-07-29T13:35:25;1.23;;;0.55;;
57832;SDS011;43667;53.036;6.740;2023-07-29T13:37:50;1.77;;;0.80;;
57832;SDS011;43667;53.036;6.740;2023-07-29T13:40:16;3.10;;;0.65;;
57832;SDS011;43667;53.036;6.740;2023-07-29T13:42:41;2.42;;;0.60;;
57832;SDS011;43667;53.036;6.740;2023-07-29T13:45:07;2.28;;;0.52;;
57832;SDS011;43667;53.036;6.740;2023-07-29T13:47:33;3.08;;;0.50;;
57832;SDS011;43667;53.036;6.740;2023-07-29T13:49:59;1.58;;;0.68;;
57832;SDS011;43667;53.036;6.740;2023-07-29T13:52:25;1.95;;;0.68;;
57832;SDS011;43667;53.036;6.740;2023-07-29T13:54:51;1.55;;;0.55;;
57832;SDS011;43667;53.036;6.740;2023-07-29T13:57:17;2.13;;;0.70;;
57832;SDS011;43667;53.036;6.740;2023-07-29T13:59:42;2.83;;;0.75;;
57832;SDS011;43667;53.036;6.740;2023-07-29T14:02:08;3.28;;;0.75;;
57832;SDS011;43667;53.036;6.740;2023-07-29T14:04:34;2.85;;;0.68;;
57832;SDS011;43667;53.036;6.740;2023-07-29T14:06:59;1.98;;;0.57;;
57832;SDS011;43667;53.036;6.740;2023-07-29T14:09:26;1.48;;;0.40;;
57832;SDS011;43667;53.036;6.740;2023-07-29T14:11:53;2.58;;;0.60;;
57832;SDS011;43667;53.036;6.740;2023-07-29T14:14:19;1.25;;;0.40;;
57832;SDS011;43667;53.036;6.740;2023-07-29T14:16:45;1.08;;;0.30;;
57832;SDS011;43667;53.036;6.740;2023-07-29T14:19:11;1.15;;;0.30;;
57832;SDS011;43667;53.036;6.740;2023-07-29T14:21:37;1.38;;;0.40;;
57832;SDS011;43667;53.036;6.740;2023-07-29T14:24:03;1.45;;;0.30;;
57832;SDS011;43667;53.036;6.740;2023-07-29T14:26:29;2.33;;;0.30;;
57832;SDS011;43667;53.036;6.740;2023-07-29T14:28:54;1.58;;;0.30;;
57832;SDS011;43667;53.036;6.740;2023-07-29T14:31:20;2.15;;;0.38;;
57832;SDS011;43667;53.036;6.740;2023-07-29T14:33:45;2.60;;;0.60;;
57832;SDS011;43667;53.036;6.740;2023-07-29T14:36:11;2.40;;;0.47;;
57832;SDS011;43667;53.036;6.740;2023-07-29T14:38:37;0.90;;;0.30;;
57832;SDS011;43667;53.036;6.740;2023-07-29T14:41:03;2.40;;;0.50;;
57832;SDS011;43667;53.036;6.740;2023-07-29T14:43:29;1.48;;;0.50;;
57832;SDS011;43667;53.036;6.740;2023-07-29T14:45:55;1.42;;;0.60;;
57832;SDS011;43667;53.036;6.740;2023-07-29T14:48:21;1.73;;;0.50;;
57832;SDS011;43667;53.036;6.740;2023-07-29T14:50:48;2.40;;;0.30;;
57832;SDS011;43667;53.036;6.740;2023-07-29T14:53:13;1.98;;;0.50;;
57832;SDS011;43667;53.036;6.740;2023-07-29T14:55:39;1.50;;;0.50;;
57832;SDS011;43667;53.036;6.740;2023-07-29T14:58:04;4.20;;;0.40;;
57832;SDS011;43667;53.036;6.740;2023-07-29T15:00:30;2.83;;;0.70;;
57832;SDS011;43667;53.036;6.740;2023-07-29T15:02:55;1.70;;;0.50;;
57832;SDS011;43667;53.036;6.740;2023-07-29T15:05:21;2.42;;;0.60;;